Time;durP1;ratioP1;P1;durP2;ratioP2;P2;SDS_P1;SDS_P2;PMS_P1;PMS_P2;Temp;Humidity;BMP_temperature;BMP_pressure;BME280_temperature;BME280_humidity;BME280_pressure;Samples;Min_cycle;Max_cycle;Signal;HPM_P1;HPM_P2
2023/03/08 00:00:10;;;;;;;2.72;1.85;;;;;;;2.38;81.38;95662.59;5094694;28;20523;-61
2023/03/08 00:02:37;;;;;;;4.00;2.38;;;;;;;2.35;81.22;95665.25;5094824;28;20048;-63
2023/03/08 00:05:05;;;;;;;5.15;2.70;;;;;;;2.37;81.56;95665.22;5094352;28;20044;-64
2023/03/08 00:07:33;;;;;;;4.25;2.92;;;;;;;2.32;81.81;95667.06;5094633;28;20044;-65
2023/03/08 00:10:02;;;;;;;5.22;2.35;;;;;;;2.37;81.77;95666.06;5093797;28;20044;-64
2023/03/08 00:12:29;;;;;;;4.93;2.78;;;;;;;2.36;81.61;95666.97;5094450;28;20074;-65
2023/03/08 00:14:57;;;;;;;5.20;3.28;;;;;;;2.37;81.76;95668.66;5094286;28;20047;-63
2023/03/08 00:17:24;;;;;;;4.55;2.67;;;;;;;2.31;82.10;95668.78;5094291;28;20048;-64
2023/03/08 00:19:51;;;;;;;3.20;2.33;;;;;;;2.29;81.63;95675.72;5094093;28;20052;-62
2023/03/08 00:22:18;;;;;;;3.97;2.17;;;;;;;2.21;80.95;95683.59;5094361;28;20048;-64
2023/03/08 00:24:46;;;;;;;3.60;2.28;;;;;;;2.13;81.10;95680.28;5094207;28;20149;-64
2023/03/08 00:27:15;;;;;;;7.13;2.40;;;;;;;2.15;81.50;95681.13;5094150;28;20408;-64
2023/03/08 00:29:42;;;;;;;3.35;2.17;;;;;;;2.16;82.71;95680.22;5094149;28;20048;-63
2023/03/08 00:32:09;;;;;;;5.32;2.35;;;;;;;2.08;82.18;95682.13;5094085;28;20055;-64
2023/03/08 00:35:04;;;;;;;3.53;2.35;;;;;;;1.94;82.82;95675.47;5093924;28;20046;-61
2023/03/08 00:40:34;;;;;;;3.80;2.28;;;;;;;2.00;82.73;95683.09;5093905;28;20059;-64
2023/03/08 00:43:03;;;;;;;19.40;16.90;;;;;;;2.00;82.92;95679.66;5093839;28;20048;-61
2023/03/08 00:46:07;;;;;;;17.83;14.10;;;;;;;2.08;83.31;95679.53;5093801;28;20048;-64
2023/03/08 00:54:21;;;;;;;3.03;2.40;;;;;;;1.95;81.87;95658.25;5093747;28;20054;-64
2023/03/08 00:56:49;;;;;;;6.75;2.60;;;;;;;1.92;81.88;95664.31;5093585;28;20052;-62
2023/03/08 01:13:00;;;;;;;5.15;2.45;;;;;;;1.63;84.14;95655.38;5093448;28;20055;-64
2023/03/08 01:15:28;;;;;;;3.40;2.25;;;;;;;1.67;84.04;95656.16;5093368;28;20093;-62
2023/03/08 01:17:55;;;;;;;5.35;3.30;;;;;;;1.69;83.50;95654.41;5093251;28;20052;-62
2023/03/08 01:25:59;;;;;;;4.97;3.10;;;;;;;1.65;83.89;95661.34;5093318;28;20055;-65
2023/03/08 01:28:27;;;;;;;5.50;4.25;;;;;;;1.64;83.95;95654.50;5093218;28;20040;-62
2023/03/08 01:33:46;;;;;;;4.60;2.45;;;;;;;1.58;84.00;95647.72;5093307;28;20058;-64
2023/03/08 01:39:00;;;;;;;10.10;2.25;;;;;;;1.60;84.12;95642.53;5093224;28;20055;-62
2023/03/08 01:41:30;;;;;;;3.38;2.72;;;;;;;1.61;84.31;95644.22;5092952;28;20059;-64
2023/03/08 01:43:58;;;;;;;4.45;2.22;;;;;;;1.62;84.31;95643.34;5093079;28;20048;-65
2023/03/08 01:49:16;;;;;;;3.22;2.55;;;;;;;1.53;84.39;95653.81;5093086;28;20059;-64
2023/03/08 01:51:46;;;;;;;5.05;2.22;;;;;;;1.55;84.18;95650.34;5092998;28;20055;-62
2023/03/08 01:59:49;;;;;;;6.07;2.22;;;;;;;1.43;85.35;95648.81;5052694;28;20135;-64
2023/03/08 02:02:20;;;;;;;3.08;2.30;;;;;;;1.39;85.32;95644.59;5052712;28;20517;-64
2023/03/08 02:04:47;;;;;;;4.70;2.22;;;;;;;1.38;85.81;95642.88;5052646;28;20045;-64
2023/03/08 02:07:14;;;;;;;5.15;2.63;;;;;;;1.34;85.39;95644.66;5052681;28;20053;-61
2023/03/08 02:09:41;;;;;;;3.78;2.47;;;;;;;1.32;85.80;95648.97;5052576;28;20104;-64
2023/03/08 02:12:12;;;;;;;7.65;2.53;;;;;;;1.32;85.46;95643.81;5052539;28;20055;-64
2023/03/08 02:14:41;;;;;;;19.85;7.97;;;;;;;1.30;85.17;95642.16;5052433;28;20525;-63
2023/03/08 02:17:08;;;;;;;7.43;3.75;;;;;;;1.27;85.22;95645.63;5052659;28;20095;-64
2023/03/08 02:19:44;;;;;;;4.53;2.85;;;;;;;1.26;86.21;95644.78;5052553;28;20041;-64
2023/03/08 02:22:14;;;;;;;3.97;2.70;;;;;;;1.22;86.33;95648.28;5052403;28;20049;-63
2023/03/08 02:24:43;;;;;;;3.10;2.45;;;;;;;1.13;86.11;95645.84;5052571;28;20447;-64
2023/03/08 02:27:14;;;;;;;2.30;2.10;;;;;;;1.20;86.31;95651.75;5052513;28;20083;-62
2023/03/08 02:29:41;;;;;;;3.38;2.50;;;;;;;1.25;86.21;95642.22;5052486;28;20052;-64
2023/03/08 02:32:08;;;;;;;5.93;2.95;;;;;;;1.30;86.16;95647.31;5053220;28;20080;-63
2023/03/08 02:34:35;;;;;;;6.13;3.00;;;;;;;1.26;87.19;95655.06;5056056;28;20114;-64
2023/03/08 02:37:03;;;;;;;7.95;6.03;;;;;;;1.31;88.13;95654.16;5056033;28;20080;-62
2023/03/08 02:42:34;;;;;;;4.68;3.08;;;;;;;1.35;86.63;95663.53;5056104;28;20063;-64
2023/03/08 02:48:22;;;;;;;4.13;3.63;;;;;;;1.37;85.95;95666.94;5056044;28;20060;-63
2023/03/08 02:53:55;;;;;;;4.63;4.03;;;;;;;1.21;86.81;95671.50;5055796;28;20056;-64
2023/03/08 02:56:40;;;;;;;6.40;3.83;;;;;;;1.27;87.03;95673.97;5055747;28;20099;-63
2023/03/08 02:59:09;;;;;;;3.92;2.47;;;;;;;1.30;86.26;95673.06;5088366;28;20097;-62
2023/03/08 03:02:13;;;;;;;3.15;2.85;;;;;;;1.25;85.87;95675.72;5095813;28;20143;-63
2023/03/08 03:05:17;;;;;;;4.32;3.20;;;;;;;1.19;85.52;95671.50;5095895;28;20490;-63
2023/03/08 03:08:02;;;;;;;4.38;3.53;;;;;;;1.12;85.30;95667.31;5095687;28;20135;-63
2023/03/08 03:14:13;;;;;;;9.20;4.15;;;;;;;1.09;85.10;95672.53;5095962;28;20051;-65
2023/03/08 03:16:42;;;;;;;13.15;3.10;;;;;;;1.10;84.88;95671.63;5095603;28;20055;-63
2023/03/08 03:19:27;;;;;;;4.20;2.97;;;;;;;1.04;84.92;95675.16;5095716;28;20080;-61
2023/03/08 03:22:12;;;;;;;5.60;3.63;;;;;;;0.96;86.99;95672.69;5095578;28;20052;-64
2023/03/08 03:27:42;;;;;;;4.95;2.92;;;;;;;0.93;86.70;95677.88;5095485;28;20059;-63
2023/03/08 03:30:11;;;;;;;3.25;2.40;;;;;;;0.94;86.00;95683.88;5095386;28;20048;-63
2023/03/08 03:32:39;;;;;;;3.92;2.78;;;;;;;0.95;85.68;95683.00;5095251;28;20105;-62
2023/03/08 03:35:07;;;;;;;4.32;3.17;;;;;;;0.98;85.65;95681.25;5095189;28;20048;-64
2023/03/08 03:37:46;;;;;;;4.43;2.55;;;;;;;0.93;85.26;95684.75;5095220;28;20446;-64
2023/03/08 03:40:15;;;;;;;4.65;2.90;;;;;;;0.87;85.45;95689.13;5095152;28;20512;-64
2023/03/08 03:42:42;;;;;;;3.88;2.53;;;;;;;0.83;86.10;95687.47;5095038;28;20083;-61
2023/03/08 03:45:09;;;;;;;6.30;3.05;;;;;;;0.84;86.38;95683.16;5094045;28;20044;-63
2023/03/08 03:47:36;;;;;;;4.90;2.95;;;;;;;0.90;85.94;95688.22;5094966;28;20043;-63
2023/03/08 03:50:06;;;;;;;7.22;3.80;;;;;;;0.90;85.81;95689.97;5094963;28;20105;-65
2023/03/08 03:52:33;;;;;;;4.80;2.80;;;;;;;0.85;85.84;95684.88;5095012;28;20126;-64
2023/03/08 03:55:00;;;;;;;3.42;2.63;;;;;;;0.84;86.21;95689.16;5095094;28;20492;-62
2023/03/08 03:57:27;;;;;;;7.20;3.45;;;;;;;0.74;87.32;95692.72;5094619;28;20072;-64
2023/03/08 03:59:54;;;;;;;3.58;3.00;;;;;;;0.75;88.04;95689.25;5094666;28;20130;-64
2023/03/08 04:02:22;;;;;;;7.78;3.25;;;;;;;0.72;87.85;95699.63;5094552;28;20048;-62
2023/03/08 04:04:50;;;;;;;6.95;3.22;;;;;;;0.69;88.27;95700.50;5094580;28;20071;-63
2023/03/08 04:07:19;;;;;;;5.38;3.10;;;;;;;0.80;88.08;95702.09;5094503;28;20508;-64
2023/03/08 04:09:46;;;;;;;4.75;3.20;;;;;;;0.83;87.86;95705.47;5094456;28;20083;-63
2023/03/08 04:12:14;;;;;;;4.78;3.50;;;;;;;0.88;87.41;95705.44;5094331;28;20432;-63
2023/03/08 04:14:41;;;;;;;5.32;2.90;;;;;;;0.80;86.51;95705.53;5094320;28;20044;-65
2023/03/08 04:17:08;;;;;;;5.63;2.47;;;;;;;0.75;86.26;95704.72;5094385;28;20379;-63
2023/03/08 04:19:35;;;;;;;4.07;2.83;;;;;;;0.63;86.54;95705.72;5094408;28;20044;-63
2023/03/08 04:22:02;;;;;;;5.65;3.28;;;;;;;0.67;86.88;95703.97;5094386;28;20060;-61
2023/03/08 04:24:31;;;;;;;8.05;7.25;;;;;;;0.74;86.83;95697.88;5094220;28;20074;-62
2023/03/08 04:26:58;;;;;;;6.70;5.03;;;;;;;0.71;86.35;95708.19;5094236;28;20045;-62
2023/03/08 04:29:25;;;;;;;5.03;3.13;;;;;;;0.61;87.24;95704.91;5094204;28;20101;-62
2023/03/08 04:31:54;;;;;;;6.40;4.00;;;;;;;0.58;88.71;95702.34;5094154;28;20047;-63
2023/03/08 04:34:21;;;;;;;6.07;4.28;;;;;;;0.65;88.19;95700.56;5094116;28;20090;-63
2023/03/08 04:36:48;;;;;;;5.43;3.25;;;;;;;0.62;88.40;95706.59;5093870;28;20494;-64
2023/03/08 04:39:15;;;;;;;7.43;4.63;;;;;;;0.68;88.15;95703.09;5093954;28;20058;-62
2023/03/08 04:41:44;;;;;;;7.85;3.70;;;;;;;0.68;87.98;95700.50;5093947;28;20421;-64
2023/03/08 04:44:11;;;;;;;7.22;4.13;;;;;;;0.69;88.38;95705.66;5093868;28;20131;-63
2023/03/08 04:46:39;;;;;;;6.75;3.55;;;;;;;0.74;88.72;95703.00;5093930;28;20127;-63
2023/03/08 04:49:06;;;;;;;9.93;3.72;;;;;;;0.77;88.16;95691.81;5093936;28;20447;-61
2023/03/08 04:51:34;;;;;;;9.25;4.15;;;;;;;0.83;88.02;95702.03;5093751;28;20123;-64
2023/03/08 04:54:03;;;;;;;4.47;3.90;;;;;;;0.93;87.91;95702.78;5093787;28;20117;-62
2023/03/08 04:56:30;;;;;;;4.82;3.15;;;;;;;1.03;86.73;95706.09;5093446;28;20067;-64
2023/03/08 04:59:00;;;;;;;5.90;3.17;;;;;;;1.06;85.94;95706.06;5093367;28;20048;-62
2023/03/08 05:01:27;;;;;;;6.05;3.75;;;;;;;1.13;85.17;95707.66;5093608;28;20047;-62
2023/03/08 05:03:55;;;;;;;7.50;4.18;;;;;;;1.17;85.35;95711.91;5093568;28;20044;-62
2023/03/08 05:06:25;;;;;;;5.65;4.68;;;;;;;1.21;85.46;95710.13;5093530;28;20079;-63
2023/03/08 05:08:53;;;;;;;4.83;3.80;;;;;;;1.22;84.96;95720.44;5093408;28;20048;-63
2023/03/08 05:11:23;;;;;;;6.35;3.75;;;;;;;1.20;84.93;95723.91;5093394;28;20044;-62
2023/03/08 05:13:52;;;;;;;6.50;4.80;;;;;;;1.16;85.26;95723.09;5093397;28;20043;-64
2023/03/08 05:16:22;;;;;;;7.80;4.40;;;;;;;1.24;84.92;95728.13;5093369;28;20052;-64
2023/03/08 05:18:49;;;;;;;3.70;2.10;;;;;;;1.28;84.37;95728.94;5093392;28;20048;-64
2023/03/08 05:21:21;;;;;;;5.53;3.42;;;;;;;1.25;84.20;95729.81;5093221;28;20382;-64
2023/03/08 05:23:48;;;;;;;6.20;4.40;;;;;;;1.26;84.77;95724.66;5093377;28;20089;-63
2023/03/08 05:26:18;;;;;;;7.35;3.67;;;;;;;1.18;86.38;95728.22;5093240;28;20044;-65
2023/03/08 05:28:45;;;;;;;4.47;3.83;;;;;;;1.26;87.31;95726.38;5093223;28;20044;-63
2023/03/08 05:31:14;;;;;;;6.85;4.07;;;;;;;1.56;88.63;95729.38;5093205;28;20097;-64
2023/03/08 05:33:45;;;;;;;6.82;4.55;;;;;;;2.73;87.46;95727.34;5093130;28;20442;-64
2023/03/08 05:36:15;;;;;;;3.78;2.40;;;;;;;3.94;81.09;95724.72;5093279;28;20391;-63
2023/03/08 05:38:43;;;;;;;4.35;2.78;;;;;;;5.50;73.77;95730.81;5093060;28;20056;-63
2023/03/08 05:41:15;;;;;;;5.78;1.98;;;;;;;7.07;66.79;95730.81;5093032;28;20056;-63
2023/03/08 05:43:42;;;;;;;2.00;1.83;;;;;;;8.62;61.92;95743.03;5093021;28;20048;-64
2023/03/08 05:46:12;;;;;;;4.10;2.03;;;;;;;10.01;55.68;95757.66;5093086;28;20048;-63
2023/03/08 05:48:40;;;;;;;3.05;1.73;;;;;;;11.14;51.68;95752.97;5092922;28;20048;-64
2023/03/08 05:51:11;;;;;;;2.65;1.88;;;;;;;12.13;48.90;95753.75;5093062;28;20060;-63
2023/03/08 05:53:38;;;;;;;;;;;;;;;12.94;47.67;95758.78;5093557;28;20155;-63
2023/03/08 05:56:09;;;;;;;10.32;2.00;;;;;;;13.75;45.17;95759.97;5092963;28;19927;-65
2023/03/08 05:58:37;;;;;;;2.72;1.90;;;;;;;14.53;43.66;95765.53;5092841;28;20102;-63
2023/03/08 06:01:10;;;;;;;2.33;1.83;;;;;;;15.23;42.71;95762.66;5092997;28;20087;-64
2023/03/08 06:03:37;;;;;;;7.00;2.13;;;;;;;15.95;41.74;95768.19;5093071;28;20063;-63
2023/03/08 06:06:04;;;;;;;1.70;1.55;;;;;;;16.53;40.58;95770.19;5092966;28;20130;-63
2023/03/08 06:08:33;;;;;;;3.05;1.90;;;;;;;17.05;40.05;95772.50;5096224;28;20561;-63
2023/03/08 06:11:00;;;;;;;2.10;1.77;;;;;;;17.60;39.92;95778.94;5096864;28;20124;-63
2023/03/08 06:13:27;;;;;;;2.58;1.75;;;;;;;18.24;38.65;95775.75;5096694;28;20080;-63
2023/03/08 06:15:56;;;;;;;3.08;1.92;;;;;;;18.83;37.93;95781.50;5096740;28;20052;-63
2023/03/08 06:18:24;;;;;;;2.38;2.17;;;;;;;19.50;36.90;95773.28;5096566;28;20477;-63
2023/03/08 06:20:59;;;;;;;3.25;2.13;;;;;;;19.83;36.15;95781.06;5096720;28;20044;-63
2023/03/08 06:23:27;;;;;;;3.38;2.08;;;;;;;19.99;35.73;95785.88;5096579;28;20501;-63
2023/03/08 06:25:56;;;;;;;2.33;1.75;;;;;;;20.51;34.62;95790.19;5096608;28;20131;-63
2023/03/08 06:28:25;;;;;;;2.10;1.58;;;;;;;21.00;33.45;95783.19;5096536;28;20044;-63
2023/03/08 06:30:52;;;;;;;3.00;1.70;;;;;;;21.45;32.32;95782.53;5096366;28;20485;-63
2023/03/08 06:33:20;;;;;;;2.60;2.38;;;;;;;21.81;32.42;95786.34;5096639;28;20048;-63
2023/03/08 06:35:57;;;;;;;2.08;1.80;;;;;;;21.90;31.17;95781.97;5096480;28;20098;-63
2023/03/08 06:38:24;;;;;;;3.78;2.30;;;;;;;22.42;30.99;95788.50;5096348;28;20052;-63
2023/03/08 06:40:52;;;;;;;2.67;1.88;;;;;;;22.74;30.76;95800.53;5096353;28;20126;-63
2023/03/08 06:43:21;;;;;;;3.20;2.60;;;;;;;22.87;31.15;95802.78;5096295;28;20409;-62
2023/03/08 06:45:49;;;;;;;4.50;2.70;;;;;;;22.92;30.01;95808.50;5096185;28;20091;-62
2023/03/08 06:48:17;;;;;;;5.18;2.25;;;;;;;22.51;31.10;95808.91;5096020;28;20056;-62
2023/03/08 06:50:46;;;;;;;5.10;2.50;;;;;;;22.17;31.90;95807.75;5096101;28;20088;-62
2023/03/08 06:53:14;;;;;;;3.53;2.53;;;;;;;22.28;30.97;95822.69;5095950;28;20113;-62
2023/03/08 06:55:42;;;;;;;5.47;2.83;;;;;;;22.96;30.26;95817.88;5096041;28;20048;-62
2023/03/08 06:58:09;;;;;;;6.70;2.67;;;;;;;23.99;28.96;95817.38;5095620;28;20139;-63
2023/03/08 07:00:38;;;;;;;2.95;2.50;;;;;;;24.54;27.23;95819.75;5095935;28;20066;-63
2023/03/08 07:03:07;;;;;;;3.28;2.10;;;;;;;24.71;28.13;95816.09;5095858;28;20079;-63
2023/03/08 07:05:34;;;;;;;3.40;2.42;;;;;;;25.00;27.41;95813.97;5095691;28;20051;-62
2023/03/08 07:08:02;;;;;;;4.85;2.42;;;;;;;25.40;26.64;95821.31;5095668;28;20048;-63
2023/03/08 07:10:29;;;;;;;2.95;2.50;;;;;;;25.69;26.56;95822.59;5095717;28;20055;-62
2023/03/08 07:13:00;;;;;;;3.40;2.55;;;;;;;25.29;27.15;95828.69;5095621;28;20474;-63
2023/03/08 07:15:27;;;;;;;;;;;;;;;25.39;26.94;95824.97;5096008;28;20052;-63
2023/03/08 07:17:59;;;;;;;3.05;2.75;;;;;;;25.28;27.55;95829.66;5095541;28;19923;-63
2023/03/08 07:20:27;;;;;;;2.88;2.58;;;;;;;25.27;26.74;95836.03;5095615;28;20180;-63
2023/03/08 07:22:55;;;;;;;3.35;2.97;;;;;;;25.34;25.97;95838.84;5095583;28;20096;-62
2023/03/08 07:25:22;;;;;;;3.67;2.70;;;;;;;24.85;26.88;95835.16;5095544;28;20052;-62
2023/03/08 07:27:49;;;;;;;3.50;2.47;;;;;;;24.51;26.69;95831.59;5095408;28;20040;-63
2023/03/08 07:30:17;;;;;;;3.53;3.08;;;;;;;23.86;27.41;95839.16;5095368;28;20072;-62
2023/03/08 07:32:44;;;;;;;6.57;3.25;;;;;;;23.41;28.05;95833.03;5095271;28;20052;-63
2023/03/08 07:35:14;;;;;;;5.07;3.53;;;;;;;22.59;29.93;95829.53;5095127;28;20044;-63
2023/03/08 07:37:44;;;;;;;3.65;3.35;;;;;;;21.78;30.49;95826.56;5095294;28;20071;-62
2023/03/08 07:40:13;;;;;;;26.42;14.77;;;;;;;21.23;31.37;95833.41;5095102;28;20087;-63
2023/03/08 07:42:41;;;;;;;6.28;4.50;;;;;;;20.59;32.80;95824.03;5095052;28;20462;-62
2023/03/08 07:45:10;;;;;;;4.55;3.40;;;;;;;20.69;31.74;95830.19;5095124;28;20105;-62
2023/03/08 07:47:37;;;;;;;4.43;3.00;;;;;;;20.49;31.39;95823.16;5094990;28;20087;-62
2023/03/08 07:50:05;;;;;;;3.70;2.90;;;;;;;20.52;32.55;95817.56;5095026;28;20062;-63
2023/03/08 07:52:33;;;;;;;4.97;3.15;;;;;;;20.11;33.18;95818.50;5094990;28;20048;-63
2023/03/08 07:55:01;;;;;;;5.20;3.25;;;;;;;20.10;33.12;95819.44;5094826;28;20117;-63
2023/03/08 07:57:29;;;;;;;4.43;3.15;;;;;;;19.32;35.26;95823.41;5094667;28;20048;-62
2023/03/08 07:59:56;;;;;;;5.32;3.70;;;;;;;18.94;35.83;95831.78;5094841;28;20039;-62
2023/03/08 08:02:23;;;;;;;4.85;3.20;;;;;;;19.16;35.33;95827.38;5094539;28;20509;-63
2023/03/08 08:04:50;;;;;;;6.05;3.40;;;;;;;19.21;35.20;95823.50;5094574;28;20517;-62
2023/03/08 08:07:18;;;;;;;4.45;3.03;;;;;;;18.79;36.05;95828.59;5094584;28;20387;-63
2023/03/08 08:09:47;;;;;;;4.00;3.58;;;;;;;18.83;36.53;95831.84;5094508;28;20044;-63
2023/03/08 08:12:14;;;;;;;5.03;3.47;;;;;;;19.31;35.55;95835.00;5094501;28;20132;-62
2023/03/08 08:14:42;;;;;;;8.75;3.92;;;;;;;19.56;35.61;95835.53;5094350;28;20489;-62
2023/03/08 08:17:09;;;;;;;3.55;3.00;;;;;;;19.48;35.37;95832.72;5094403;28;20103;-63
2023/03/08 08:19:37;;;;;;;5.55;3.50;;;;;;;19.79;35.63;95825.63;5094334;28;20101;-63
2023/03/08 08:22:05;;;;;;;6.25;3.22;;;;;;;19.94;35.31;95823.44;5094341;28;20055;-62
2023/03/08 08:24:32;;;;;;;5.18;3.15;;;;;;;19.50;35.15;95826.31;5094364;28;20519;-63
2023/03/08 08:27:01;;;;;;;4.00;3.25;;;;;;;18.41;37.63;95825.50;5094191;28;20040;-63
2023/03/08 08:29:28;;;;;;;5.78;3.58;;;;;;;18.51;37.71;95816.81;5093895;28;20471;-63
2023/03/08 08:31:55;;;;;;;3.67;3.00;;;;;;;18.37;38.67;95812.63;5094065;28;20084;-63
2023/03/08 08:34:23;;;;;;;5.00;2.90;;;;;;;18.48;36.57;95812.59;5094180;28;20128;-62
2023/03/08 08:36:50;;;;;;;5.95;3.05;;;;;;;18.58;37.45;95820.63;5094076;28;20524;-62
2023/03/08 08:39:17;;;;;;;5.70;3.28;;;;;;;18.75;37.37;95818.41;5094034;28;20465;-63
2023/03/08 08:41:44;;;;;;;14.98;6.75;;;;;;;18.78;36.39;95813.69;5093796;28;20581;-64
2023/03/08 08:44:13;;;;;;;4.93;2.88;;;;;;;18.76;36.18;95822.72;5094026;28;20143;-62
2023/03/08 08:46:40;;;;;;;4.60;2.80;;;;;;;18.60;35.01;95809.91;5093768;28;20087;-63
2023/03/08 08:49:07;;;;;;;4.97;3.22;;;;;;;18.57;36.25;95808.34;5093760;28;20482;-63
2023/03/08 08:51:34;;;;;;;5.53;2.88;;;;;;;18.52;34.53;95807.91;5093853;28;20072;-63
2023/03/08 08:54:01;;;;;;;3.75;2.53;;;;;;;18.31;37.31;95803.41;5093741;28;20139;-63
2023/03/08 08:56:29;;;;;;;4.75;3.10;;;;;;;18.60;35.29;95809.91;5093641;28;20044;-63
2023/03/08 08:58:56;;;;;;;3.22;2.40;;;;;;;18.75;36.23;95810.47;5093426;28;20048;-62
2023/03/08 09:01:27;;;;;;;2.22;2.03;;;;;;;18.75;34.53;95813.13;5093618;28;20135;-64
2023/03/08 09:03:54;;;;;;;3.67;2.50;;;;;;;19.17;32.83;95809.66;5093493;28;20052;-63
2023/03/08 09:06:23;;;;;;;3.15;2.60;;;;;;;18.91;33.96;95813.50;5093496;28;20056;-64
2023/03/08 09:08:51;;;;;;;5.15;2.63;;;;;;;18.72;34.94;95805.41;5093414;28;20075;-62
2023/03/08 09:11:18;;;;;;;4.72;2.45;;;;;;;18.74;32.78;95803.47;5093435;28;20066;-63
2023/03/08 09:13:45;;;;;;;3.08;2.00;;;;;;;18.61;33.49;95809.78;5093470;28;20074;-62
2023/03/08 09:16:19;;;;;;;2.28;1.90;;;;;;;18.52;34.29;95807.91;5093431;28;20052;-62
2023/03/08 09:18:48;;;;;;;2.33;2.13;;;;;;;18.72;33.42;95808.88;5093396;28;20052;-63
2023/03/08 09:21:16;;;;;;;5.18;2.90;;;;;;;18.53;33.57;95807.78;5093209;28;20039;-62
2023/03/08 09:23:43;;;;;;;5.88;2.03;;;;;;;18.65;32.12;95808.56;5093300;28;20048;-64
2023/03/08 09:26:11;;;;;;;2.90;2.13;;;;;;;18.46;33.09;95809.25;5093283;28;20081;-63
2023/03/08 09:28:38;;;;;;;14.45;10.27;;;;;;;18.49;31.83;95809.00;5093343;28;20047;-64
2023/03/08 11:57:59;;;;;;;3.00;1.52;;;;;;;17.77;29.13;95716.78;5071637;28;21188;-63
2023/03/08 12:00:32;;;;;;;3.28;1.80;;;;;;;17.88;27.80;95715.06;5054809;28;20107;-63
2023/03/08 12:03:13;;;;;;;3.05;1.90;;;;;;;17.91;28.12;95722.78;5054399;28;20059;-63
2023/03/08 12:05:44;;;;;;;5.40;1.50;;;;;;;18.10;26.98;95718.63;5053964;28;20072;-64
2023/03/08 12:08:15;;;;;;;;;;;;;;;17.99;24.89;95716.84;5054960;28;20045;-64
2023/03/08 12:10:49;;;;;;;1.35;1.20;;;;;;;17.75;26.15;95710.75;5054500;28;19983;-63
2023/03/08 12:13:23;;;;;;;2.25;1.10;;;;;;;17.64;27.78;95700.22;5054374;28;20055;-62
2023/03/08 12:15:54;;;;;;;2.45;1.50;;;;;;;17.90;27.94;95698.09;5054259;28;20048;-62
2023/03/08 12:18:28;;;;;;;4.63;1.60;;;;;;;18.08;27.16;95702.84;5054227;28;20085;-63
2023/03/08 12:21:02;;;;;;;1.95;1.48;;;;;;;18.06;26.04;95704.78;5054195;28;20053;-63
2023/03/08 12:23:36;;;;;;;1.98;1.20;;;;;;;17.94;25.75;95691.59;5054090;28;20045;-62
2023/03/08 12:26:07;;;;;;;1.83;1.15;;;;;;;17.89;26.41;95688.50;5054098;28;20052;-64
2023/03/08 12:28:41;;;;;;;1.52;1.00;;;;;;;17.75;27.15;95691.41;5054061;28;20129;-62
2023/03/08 12:31:24;;;;;;;4.55;1.63;;;;;;;17.76;27.84;95693.94;5054003;28;20064;-63
2023/03/08 12:33:52;;;;;;;3.38;1.25;;;;;;;17.63;27.33;95694.09;5053980;28;20470;-62
2023/03/08 12:36:21;;;;;;;3.53;1.35;;;;;;;17.57;28.57;95697.22;5053938;28;20045;-64
2023/03/08 12:38:54;;;;;;;6.53;1.50;;;;;;;17.64;27.96;95697.56;5053827;28;20049;-64
2023/03/08 12:41:24;;;;;;;2.90;1.67;;;;;;;17.65;27.08;95697.47;5053843;28;20114;-63
2023/03/08 12:44:06;;;;;;;4.03;1.30;;;;;;;17.58;28.69;95685.66;5053785;28;20135;-63
2023/03/08 12:46:49;;;;;;;1.40;1.10;;;;;;;17.72;27.23;95686.34;5053802;28;20045;-62
2023/03/08 12:49:21;;;;;;;2.90;1.20;;;;;;;17.86;26.89;95687.91;5053576;28;20095;-62
2023/03/08 12:51:58;;;;;;;1.63;1.10;;;;;;;17.92;25.59;95682.97;5053545;28;20056;-63
2023/03/08 12:54:30;;;;;;;1.65;1.00;;;;;;;17.95;26.67;95687.16;5053468;28;20563;-62
2023/03/08 12:56:57;;;;;;;1.83;0.98;;;;;;;18.02;25.50;95677.75;5053525;28;20047;-64
2023/03/08 12:59:37;;;;;;;2.05;1.08;;;;;;;18.03;25.64;95673.31;5076422;28;20453;-63
2023/03/08 13:02:25;;;;;;;1.90;1.33;;;;;;;18.12;26.06;95677.84;5093523;28;20044;-62
2023/03/08 13:05:19;;;;;;;3.60;1.30;;;;;;;18.12;25.44;95671.75;5093613;28;20059;-62
2023/03/08 13:08:22;;;;;;;3.15;1.00;;;;;;;18.24;24.96;95665.41;5093597;28;20073;-63
2023/03/08 13:11:04;;;;;;;1.75;1.23;;;;;;;18.26;25.28;95670.56;5089897;28;20079;-63
2023/03/08 13:13:51;;;;;;;1.90;1.00;;;;;;;18.19;24.82;95678.19;5093569;28;20052;-62
2023/03/08 13:16:23;;;;;;;1.55;1.08;;;;;;;18.19;24.72;95665.78;5093391;28;20094;-64
2023/03/08 13:19:02;;;;;;;4.03;1.50;;;;;;;18.10;25.84;95663.94;5093404;28;20141;-62
2023/03/08 13:21:33;;;;;;;2.85;1.42;;;;;;;18.03;26.73;95665.38;5093343;28;20071;-63
2023/03/08 13:24:09;;;;;;;1.35;1.10;;;;;;;18.06;26.24;95663.28;5093311;28;20047;-63
2023/03/08 13:26:52;;;;;;;2.78;1.33;;;;;;;17.93;26.67;95657.34;5093404;28;20048;-62
2023/03/08 13:29:20;;;;;;;3.10;1.30;;;;;;;17.81;26.86;95660.03;5093243;28;20044;-63
2023/03/08 13:31:48;;;;;;;1.58;1.20;;;;;;;17.86;26.72;95661.44;5093167;28;20097;-62
2023/03/08 13:34:29;;;;;;;1.35;1.10;;;;;;;17.83;26.85;95662.53;5093175;28;20489;-62
2023/03/08 13:36:56;;;;;;;4.85;1.27;;;;;;;17.83;26.97;95665.19;5093142;28;20131;-64
2023/03/08 13:39:25;;;;;;;0.82;0.68;;;;;;;17.72;26.19;95666.06;5093156;28;20050;-63
2023/03/08 13:41:52;;;;;;;1.60;1.27;;;;;;;17.68;29.00;95652.25;5093188;28;20055;-62
2023/03/08 13:44:23;;;;;;;2.47;1.35;;;;;;;17.55;30.41;95659.50;5092989;28;20047;-63
2023/03/08 13:46:52;;;;;;;1.92;1.67;;;;;;;17.56;31.25;95661.16;5093101;28;20051;-62
2023/03/08 13:49:23;;;;;;;1.42;1.20;;;;;;;17.64;31.25;95665.84;5092996;28;20074;-63
2023/03/08 13:51:55;;;;;;;2.33;1.42;;;;;;;17.50;30.99;95661.66;5093090;28;20040;-62
2023/03/08 13:54:28;;;;;;;5.65;1.83;;;;;;;17.43;30.85;95663.97;5092961;28;20044;-64
2023/03/08 13:56:56;;;;;;;2.83;1.40;;;;;;;17.06;30.71;95659.75;5092995;28;20048;-62
2023/03/08 13:59:23;;;;;;;2.10;1.50;;;;;;;16.99;32.07;95663.81;5092833;28;20170;-64
2023/03/08 14:01:52;;;;;;;1.67;1.48;;;;;;;16.97;31.71;95656.03;5092957;28;20508;-64
2023/03/08 14:04:20;;;;;;;2.88;1.80;;;;;;;17.07;31.68;95653.56;5092788;28;20139;-63
2023/03/08 14:06:54;;;;;;;2.30;1.92;;;;;;;17.04;31.15;95665.16;5092903;28;20134;-63
2023/03/08 14:09:22;;;;;;;4.15;1.88;;;;;;;17.05;31.70;95652.78;5092864;28;20481;-64
2023/03/08 14:11:57;;;;;;;2.88;1.98;;;;;;;16.96;31.67;95654.34;5092846;28;20082;-62
2023/03/08 14:14:29;;;;;;;2.08;1.50;;;;;;;16.87;31.19;95649.78;5092835;28;20079;-63
2023/03/08 14:16:56;;;;;;;3.40;1.40;;;;;;;16.83;31.64;95657.13;5092782;28;20497;-62
2023/03/08 14:19:26;;;;;;;1.73;1.60;;;;;;;16.69;32.22;95647.59;5092848;28;20048;-62
2023/03/08 14:21:57;;;;;;;2.97;1.60;;;;;;;16.70;31.79;95651.91;5092879;28;20052;-64
2023/03/08 14:24:26;;;;;;;2.05;1.75;;;;;;;16.60;31.56;95648.31;5092630;28;20048;-62
2023/03/08 14:26:55;;;;;;;1.40;1.30;;;;;;;16.62;32.28;95651.69;5092682;28;20494;-61
2023/03/08 14:29:23;;;;;;;3.00;1.50;;;;;;;16.53;32.38;95663.78;5095807;28;20497;-63
2023/03/08 14:32:06;;;;;;;1.88;1.40;;;;;;;16.46;32.55;95655.47;5096487;28;20486;-62
2023/03/08 14:34:35;;;;;;;3.42;1.55;;;;;;;16.48;32.66;95660.63;5096414;28;20066;-62
2023/03/08 14:37:07;;;;;;;4.07;1.40;;;;;;;16.42;32.24;95660.16;5096308;28;20054;-63
2023/03/08 14:39:36;;;;;;;1.48;1.30;;;;;;;16.38;33.11;95656.06;5096263;28;20090;-62
2023/03/08 14:42:16;;;;;;;2.13;1.85;;;;;;;16.26;32.90;95665.72;5096326;28;20497;-63
2023/03/08 14:44:49;;;;;;;1.73;1.42;;;;;;;16.24;32.94;95662.38;5096260;28;20105;-64
2023/03/08 14:47:22;;;;;;;6.20;1.70;;;;;;;16.23;33.20;95663.34;5096248;28;20101;-63
2023/03/08 14:49:55;;;;;;;3.47;1.55;;;;;;;16.24;32.47;95662.38;5096215;28;20124;-63
2023/03/08 14:52:27;;;;;;;1.95;1.52;;;;;;;16.26;33.43;95664.91;5096096;28;20556;-62
2023/03/08 14:54:54;;;;;;;4.63;1.70;;;;;;;16.22;33.26;95659.00;5096055;28;20098;-62
2023/03/08 14:57:24;;;;;;;5.72;1.55;;;;;;;16.16;32.95;95662.09;5095991;28;20070;-63
2023/03/08 14:59:52;;;;;;;2.55;1.73;;;;;;;16.14;32.76;95656.94;5095833;28;20139;-63
2023/03/08 15:02:20;;;;;;;2.58;1.77;;;;;;;16.16;33.62;95660.31;5095913;28;20387;-63
2023/03/08 15:04:47;;;;;;;2.40;1.70;;;;;;;16.13;33.14;95663.19;5095862;28;20063;-63
2023/03/08 15:07:19;;;;;;;3.25;1.83;;;;;;;15.99;32.98;95655.47;5095880;28;20401;-63
2023/03/08 15:09:50;;;;;;;3.47;1.92;;;;;;;15.90;33.80;95665.69;5095823;28;20405;-63
2023/03/08 15:12:18;;;;;;;2.05;1.85;;;;;;;15.83;33.36;95653.91;5095850;28;20056;-63
2023/03/08 15:14:45;;;;;;;5.07;2.13;;;;;;;15.70;33.60;95653.13;5095723;28;20048;-62